createdAt,value
2017-12-12T00:00:05.240Z,80.35
2017-12-12T00:02:36.939Z,80.12
2017-12-12T00:05:15.802Z,80.11
2017-12-12T00:07:49.382Z,79.91
2017-12-12T00:10:22.860Z,79.90
2017-12-12T00:12:56.895Z,79.26
2017-12-12T00:15:30.301Z,79.56
2017-12-12T00:18:03.323Z,79.55
2017-12-12T00:20:40.792Z,78.89
2017-12-12T00:23:13.766Z,78.47
2017-12-12T00:25:46.672Z,78.25
2017-12-12T00:28:19.328Z,78.03
2017-12-12T00:30:53.656Z,78.06
2017-12-12T00:33:25.155Z,78.07
2017-12-12T00:35:57.672Z,78.21
2017-12-12T00:38:30.259Z,78.05
2017-12-12T00:41:02.338Z,78.26
2017-12-12T00:43:33.960Z,78.38
2017-12-12T00:46:06.380Z,78.05
2017-12-12T00:48:39.057Z,78.19
2017-12-12T00:51:10.066Z,78.39
2017-12-12T00:53:41.416Z,78.45
2017-12-12T00:56:13.274Z,78.45
2017-12-12T00:58:45.010Z,78.37
2017-12-12T01:01:16.743Z,78.25
2017-12-12T01:03:48.742Z,78.31
2017-12-12T01:06:20.195Z,78.30
2017-12-12T01:08:51.684Z,78.22
2017-12-12T01:11:22.818Z,78.15
2017-12-12T01:13:54.435Z,78.00
2017-12-12T01:16:25.912Z,78.21
2017-12-12T01:18:57.425Z,78.25
2017-12-12T01:21:28.999Z,78.29
2017-12-12T01:24:00.739Z,78.21
2017-12-12T01:26:32.129Z,78.29
2017-12-12T01:29:03.479Z,78.53
2017-12-12T01:31:35.276Z,78.65
2017-12-12T01:34:08.989Z,78.95
2017-12-12T01:40:02.920Z,79.12
2017-12-12T01:42:34.923Z,79.29
2017-12-12T01:45:07.463Z,79.00
2017-12-12T01:47:39.042Z,78.65
2017-12-12T01:50:10.645Z,78.77
2017-12-12T01:52:41.880Z,79.00
2017-12-12T01:55:12.979Z,79.58
2017-12-12T01:57:43.992Z,79.84
2017-12-12T02:00:15.321Z,80.21
2017-12-12T02:02:46.638Z,80.49
2017-12-12T02:05:17.642Z,80.30
2017-12-12T02:07:49.146Z,80.30
2017-12-12T02:10:21.205Z,80.43
2017-12-12T02:12:52.161Z,80.07
2017-12-12T02:15:23.323Z,79.42
2017-12-12T02:17:54.249Z,79.21
2017-12-12T02:20:26.278Z,78.73
2017-12-12T02:22:57.513Z,78.22
2017-12-12T02:25:28.858Z,77.86
2017-12-12T02:28:00.765Z,77.46
2017-12-12T02:30:31.672Z,76.39
2017-12-12T02:33:03.027Z,75.88
2017-12-12T02:35:34.268Z,75.71
2017-12-12T02:38:05.249Z,75.61
2017-12-12T02:40:36.339Z,75.10
2017-12-12T02:43:07.848Z,74.91
2017-12-12T02:45:38.823Z,74.87
2017-12-12T02:48:09.916Z,74.33
2017-12-12T02:50:41.188Z,73.80
2017-12-12T02:53:13.813Z,73.41
2017-12-12T02:55:46.749Z,74.19
2017-12-12T02:58:18.456Z,73.59
2017-12-12T03:00:49.833Z,73.24
2017-12-12T03:03:20.772Z,73.21
2017-12-12T03:05:52.725Z,72.76
2017-12-12T03:08:23.895Z,73.40
2017-12-12T03:11:10.852Z,72.72
2017-12-12T03:13:43.322Z,72.22
2017-12-12T03:16:15.056Z,72.67
2017-12-12T03:18:46.458Z,72.43
2017-12-12T03:21:17.757Z,72.28
2017-12-12T03:23:48.781Z,72.37
2017-12-12T03:26:19.796Z,72.30
2017-12-12T03:28:51.035Z,72.31
2017-12-12T03:31:22.672Z,72.95
2017-12-12T03:33:54.211Z,73.18
2017-12-12T03:36:25.955Z,74.07
2017-12-12T03:38:57.505Z,75.50
2017-12-12T03:41:28.638Z,75.83
2017-12-12T03:44:00.266Z,76.59
2017-12-12T03:46:31.597Z,77.14
2017-12-12T03:49:03.774Z,77.62
2017-12-12T03:51:34.872Z,78.47
2017-12-12T03:54:05.904Z,78.62
2017-12-12T03:56:37.341Z,78.75
2017-12-12T03:59:08.287Z,78.85
2017-12-12T04:01:39.436Z,78.64
2017-12-12T04:04:10.890Z,78.17
2017-12-12T04:06:41.965Z,78.21
2017-12-12T04:09:13.149Z,77.95
2017-12-12T04:11:44.292Z,78.24
2017-12-12T04:14:15.291Z,79.07
2017-12-12T04:16:46.300Z,79.94
2017-12-12T04:19:17.250Z,80.63
2017-12-12T04:21:48.308Z,81.31
2017-12-12T04:24:21.501Z,81.77
2017-12-12T04:26:52.510Z,81.76
2017-12-12T04:29:25.693Z,81.78
2017-12-12T04:31:56.784Z,81.11
2017-12-12T04:34:28.019Z,81.07
2017-12-12T04:36:59.572Z,81.21
2017-12-12T04:39:30.599Z,81.29
2017-12-12T04:42:02.426Z,80.91
2017-12-12T04:44:34.544Z,80.07
2017-12-12T04:47:06.594Z,79.52
2017-12-12T04:49:38.855Z,79.57
2017-12-12T04:52:09.852Z,78.88
2017-12-12T04:54:42.377Z,79.29
2017-12-12T04:57:15.903Z,78.59
2017-12-12T04:59:47.416Z,77.88
2017-12-12T05:02:19.584Z,77.20
2017-12-12T05:04:50.806Z,77.09
2017-12-12T05:07:22.672Z,78.24
2017-12-12T05:09:58.048Z,78.17
2017-12-12T05:12:29.908Z,78.66
2017-12-12T05:15:06.867Z,78.89
2017-12-12T05:17:37.804Z,79.04
2017-12-12T05:20:12.570Z,79.18
2017-12-12T05:22:43.929Z,79.99
2017-12-12T05:25:22.739Z,79.62
2017-12-12T05:27:56.280Z,79.62
2017-12-12T05:30:29.284Z,79.18
2017-12-12T05:33:01.484Z,79.98
2017-12-12T05:35:36.515Z,80.85
2017-12-12T05:38:09.516Z,81.16
2017-12-12T05:40:45.086Z,81.09
2017-12-12T05:43:21.922Z,80.43
2017-12-12T05:45:58.272Z,79.23
2017-12-12T05:48:35.862Z,78.75
2017-12-12T05:51:29.594Z,78.42
2017-12-12T05:54:10.020Z,77.27
2017-12-12T05:56:45.999Z,77.38
2017-12-12T05:59:23.954Z,76.54
2017-12-12T06:02:03.910Z,75.82
2017-12-12T06:04:35.628Z,75.12
2017-12-12T06:07:06.956Z,75.16
2017-12-12T06:09:39.950Z,75.07
2017-12-12T06:12:13.322Z,73.77
2017-12-12T06:14:47.211Z,73.44
2017-12-12T06:17:18.104Z,72.35
2017-12-12T06:19:50.521Z,72.52
2017-12-12T06:24:57.915Z,73.34
2017-12-12T06:27:30.794Z,74.22
2017-12-12T06:30:05.427Z,74.96
2017-12-12T06:32:41.212Z,75.17
2017-12-12T06:35:12.727Z,74.17
2017-12-12T06:37:44.144Z,74.21
2017-12-12T06:40:16.217Z,73.61
2017-12-12T06:42:48.840Z,74.39
2017-12-12T06:45:20.738Z,73.48
2017-12-12T06:47:52.529Z,74.16
2017-12-12T06:50:24.291Z,73.19
2017-12-12T06:52:55.402Z,73.10
2017-12-12T06:55:29.068Z,73.43
2017-12-12T06:58:01.143Z,72.74
2017-12-12T07:00:33.244Z,73.90
2017-12-12T07:03:07.447Z,73.96
2017-12-12T07:05:42.479Z,72.75
2017-12-12T07:08:13.963Z,72.54
2017-12-12T07:10:45.280Z,73.40
2017-12-12T07:13:17.006Z,72.75
2017-12-12T07:15:50.224Z,72.83
2017-12-12T07:18:21.190Z,72.58
2017-12-12T07:20:53.986Z,73.12
2017-12-12T07:23:24.982Z,73.33
2017-12-12T07:25:57.427Z,73.19
2017-12-12T07:28:30.924Z,73.59
2017-12-12T07:31:03.935Z,73.47
2017-12-12T07:33:36.694Z,73.67
2017-12-12T07:36:08.249Z,74.63
2017-12-12T07:38:39.906Z,74.48
2017-12-12T07:41:10.937Z,74.20
2017-12-12T07:43:42.261Z,74.42
2017-12-12T07:46:13.459Z,74.25
2017-12-12T07:48:44.903Z,74.37
2017-12-12T07:51:17.261Z,74.53
2017-12-12T07:53:48.148Z,74.48
2017-12-12T07:56:19.658Z,74.69
2017-12-12T07:58:51.002Z,74.99
2017-12-12T08:01:22.564Z,75.41
2017-12-12T08:03:55.577Z,75.38
2017-12-12T08:06:26.913Z,75.37
2017-12-12T08:09:00.187Z,75.24
2017-12-12T08:11:31.266Z,74.92
2017-12-12T08:14:02.130Z,75.05
2017-12-12T08:16:34.514Z,75.40
2017-12-12T08:19:06.421Z,75.05
2017-12-12T08:21:38.221Z,75.20
2017-12-12T08:24:09.496Z,74.98
2017-12-12T08:26:41.848Z,74.75
2017-12-12T08:29:13.948Z,74.91
2017-12-12T08:31:45.907Z,74.79
2017-12-12T08:34:20.797Z,74.92
2017-12-12T08:36:53.149Z,74.78
2017-12-12T08:39:25.110Z,74.91
2017-12-12T08:41:58.246Z,74.60
2017-12-12T08:44:30.194Z,74.02
2017-12-12T08:47:04.990Z,74.24
2017-12-12T08:49:36.483Z,74.61
2017-12-12T08:52:09.251Z,74.42
2017-12-12T08:54:41.391Z,74.18
2017-12-12T08:57:13.715Z,74.22
2017-12-12T08:59:45.157Z,74.54
2017-12-12T09:02:17.897Z,74.57
2017-12-12T09:04:49.026Z,74.56
2017-12-12T09:07:20.296Z,74.95
2017-12-12T09:09:51.278Z,74.71
2017-12-12T09:12:22.609Z,74.68
2017-12-12T09:14:56.660Z,74.88
2017-12-12T09:17:27.920Z,74.81
2017-12-12T09:20:01.402Z,74.88
2017-12-12T09:22:32.599Z,74.80
2017-12-12T09:25:04.341Z,74.73
2017-12-12T09:27:36.088Z,75.08
2017-12-12T09:30:07.586Z,74.65
2017-12-12T09:32:39.861Z,74.55
2017-12-12T09:35:12.155Z,74.85
2017-12-12T09:37:43.458Z,74.44
2017-12-12T09:40:14.666Z,74.89
2017-12-12T09:42:45.730Z,74.91
2017-12-12T09:45:16.729Z,74.42
2017-12-12T09:47:48.220Z,74.10
2017-12-12T09:50:19.308Z,74.32
2017-12-12T09:52:50.206Z,73.95
2017-12-12T09:55:21.542Z,73.90
2017-12-12T09:57:53.539Z,73.76
2017-12-12T10:00:24.907Z,73.23
2017-12-12T10:02:56.052Z,72.49
2017-12-12T10:05:29.362Z,71.83
2017-12-12T10:08:04.166Z,71.97
2017-12-12T10:10:35.228Z,71.96
2017-12-12T10:13:07.457Z,71.11
2017-12-12T10:15:38.508Z,70.31
2017-12-12T10:18:10.637Z,70.01
2017-12-12T10:20:41.866Z,69.09
2017-12-12T10:23:16.350Z,69.15
2017-12-12T10:25:47.487Z,68.92
2017-12-12T10:28:20.093Z,68.05
2017-12-12T10:30:51.112Z,68.25
2017-12-12T10:33:22.444Z,68.71
2017-12-12T10:35:53.583Z,68.70
2017-12-12T10:38:24.670Z,68.09
2017-12-12T10:40:57.581Z,68.06
2017-12-12T10:43:29.195Z,69.45
2017-12-12T10:46:01.097Z,69.73
2017-12-12T10:48:32.887Z,70.36
2017-12-12T10:51:04.740Z,69.97
2017-12-12T10:53:35.821Z,70.29
2017-12-12T10:56:07.004Z,69.36
2017-12-12T10:58:38.342Z,69.68
2017-12-12T11:01:09.994Z,69.86
2017-12-12T11:03:41.930Z,68.67
2017-12-12T11:06:14.605Z,68.30
2017-12-12T11:08:46.332Z,68.44
2017-12-12T11:11:18.109Z,68.44
2017-12-12T11:13:49.154Z,68.92
2017-12-12T11:16:21.048Z,69.56
2017-12-12T11:18:53.362Z,68.82
2017-12-12T11:21:25.392Z,69.41
2017-12-12T11:24:03.296Z,68.95
2017-12-12T11:26:35.946Z,70.22
2017-12-12T11:29:08.239Z,69.79
2017-12-12T11:31:40.210Z,69.89
2017-12-12T11:34:11.506Z,70.02
2017-12-12T11:36:43.990Z,69.53
2017-12-12T11:39:15.794Z,68.56
2017-12-12T11:41:47.351Z,68.90
2017-12-12T11:44:19.328Z,69.81
2017-12-12T11:46:50.825Z,69.83
2017-12-12T11:49:22.653Z,69.65
2017-12-12T11:51:55.224Z,68.90
2017-12-12T11:54:26.789Z,69.62
2017-12-12T11:56:59.243Z,69.50
2017-12-12T11:59:31.844Z,69.00
2017-12-12T12:02:05.302Z,69.48
2017-12-12T12:04:38.057Z,68.99
2017-12-12T12:07:09.799Z,68.99
2017-12-12T12:09:41.056Z,68.95
2017-12-12T12:12:12.859Z,69.44
2017-12-12T12:14:43.804Z,68.82
2017-12-12T12:17:14.984Z,69.53
2017-12-12T12:19:47.798Z,69.92
2017-12-12T12:22:21.686Z,69.54
2017-12-12T12:24:57.466Z,69.59
2017-12-12T12:27:31.423Z,68.95
2017-12-12T12:30:04.110Z,69.14
2017-12-12T12:32:36.443Z,69.70
2017-12-12T12:35:11.572Z,69.46
2017-12-12T12:37:44.257Z,69.87
2017-12-12T12:40:15.767Z,69.53
2017-12-12T12:42:51.444Z,69.46
2017-12-12T12:45:25.596Z,69.95
2017-12-12T12:47:57.238Z,69.63
2017-12-12T12:50:30.208Z,69.05
2017-12-12T12:53:01.709Z,68.86
2017-12-12T12:55:33.601Z,68.91
2017-12-12T12:58:05.213Z,69.13
2017-12-12T13:00:37.324Z,69.05
2017-12-12T13:03:10.970Z,68.68
2017-12-12T13:05:45.440Z,68.64
2017-12-12T13:08:17.696Z,68.61
2017-12-12T13:10:51.551Z,68.78
2017-12-12T13:13:24.459Z,69.06
2017-12-12T13:15:57.883Z,69.36
2017-12-12T13:18:30.078Z,68.86
2017-12-12T13:21:03.950Z,69.23
2017-12-12T13:23:35.936Z,69.20
2017-12-12T13:26:10.542Z,68.98
2017-12-12T13:28:42.624Z,69.83
2017-12-12T13:31:14.796Z,69.84
2017-12-12T13:33:46.606Z,69.92
2017-12-12T13:36:19.900Z,69.80
2017-12-12T13:38:53.811Z,69.55
2017-12-12T13:41:26.707Z,69.76
2017-12-12T13:43:59.616Z,70.15
2017-12-12T13:46:31.631Z,70.50
2017-12-12T13:49:02.916Z,71.07
2017-12-12T13:51:36.773Z,70.84
2017-12-12T13:54:12.476Z,70.84
2017-12-12T13:56:44.044Z,70.64
2017-12-12T13:59:16.237Z,70.65
2017-12-12T14:01:53.390Z,69.65
2017-12-12T14:04:25.894Z,70.32
2017-12-12T14:06:57.453Z,69.95
2017-12-12T14:09:29.629Z,69.43
2017-12-12T14:12:03.244Z,69.54
2017-12-12T14:14:34.117Z,69.21
2017-12-12T14:17:05.302Z,69.09
2017-12-12T14:19:37.021Z,68.68
2017-12-12T14:22:09.526Z,68.75
2017-12-12T14:24:41.322Z,69.16
2017-12-12T14:27:15.101Z,69.09
2017-12-12T14:29:54.492Z,68.29
2017-12-12T14:32:26.553Z,68.44
2017-12-12T14:35:01.812Z,68.94
2017-12-12T14:37:37.813Z,68.27
2017-12-12T14:40:12.912Z,68.12
2017-12-12T14:42:52.542Z,68.38
2017-12-12T14:45:27.116Z,68.66
2017-12-12T14:48:02.233Z,67.70
2017-12-12T14:50:35.062Z,67.83
2017-12-12T14:53:09.829Z,68.37
2017-12-12T14:55:44.014Z,68.80
2017-12-12T14:58:21.881Z,69.21
2017-12-12T15:00:54.586Z,69.68
2017-12-12T15:03:34.688Z,69.51
2017-12-12T15:06:11.723Z,69.38
2017-12-12T15:08:45.907Z,69.57
2017-12-12T15:11:24.381Z,69.55
2017-12-12T15:13:57.451Z,69.95
2017-12-12T15:16:33.544Z,70.21
2017-12-12T15:19:16.179Z,70.53
2017-12-12T15:21:48.460Z,70.29
2017-12-12T15:24:21.937Z,70.37
2017-12-12T15:26:56.232Z,70.55
2017-12-12T15:29:32.114Z,70.71
2017-12-12T15:32:04.322Z,70.82
2017-12-12T15:34:38.053Z,71.36
2017-12-12T15:37:09.964Z,71.30
2017-12-12T15:39:43.956Z,71.09
2017-12-12T15:42:18.452Z,71.01
2017-12-12T15:44:57.151Z,71.64
2017-12-12T15:47:29.746Z,71.26
2017-12-12T15:50:14.021Z,71.47
2017-12-12T15:52:45.544Z,71.51
2017-12-12T15:55:18.463Z,72.01
2017-12-12T15:57:51.034Z,72.18
2017-12-12T16:00:35.618Z,72.22
2017-12-12T16:03:13.768Z,72.34
2017-12-12T16:05:48.061Z,71.95
2017-12-12T16:08:21.439Z,72.62
2017-12-12T16:10:53.104Z,72.90
2017-12-12T16:13:26.452Z,73.37
2017-12-12T16:15:58.258Z,73.34
2017-12-12T16:18:36.800Z,73.17
2017-12-12T16:21:17.291Z,73.20
2017-12-12T16:23:50.359Z,73.27
2017-12-12T16:26:25.172Z,72.79
2017-12-12T16:28:57.113Z,72.79
2017-12-12T16:31:29.617Z,73.21
2017-12-12T16:34:04.804Z,72.95
2017-12-12T16:36:37.588Z,73.49
2017-12-12T16:39:11.616Z,72.78
2017-12-12T16:41:45.535Z,72.92
2017-12-12T16:44:17.589Z,72.70
2017-12-12T16:49:24.025Z,73.05
2017-12-12T16:51:56.292Z,73.33
2017-12-12T16:54:29.086Z,73.28
2017-12-12T16:57:02.447Z,72.41
2017-12-12T16:59:36.315Z,72.47
2017-12-12T17:02:14.376Z,72.28
2017-12-12T17:04:47.761Z,71.89
2017-12-12T17:07:20.226Z,72.22
2017-12-12T17:09:57.063Z,72.56
2017-12-12T17:12:35.705Z,72.93
2017-12-12T17:15:20.709Z,72.68
2017-12-12T17:20:49.937Z,72.89
2017-12-12T17:23:34.738Z,73.50
2017-12-12T17:26:07.885Z,73.30
2017-12-12T17:28:44.295Z,73.64
2017-12-12T17:31:20.375Z,73.65
2017-12-12T17:33:56.426Z,73.40
2017-12-12T17:36:30.075Z,73.45
2017-12-12T17:39:07.197Z,73.22
2017-12-12T17:41:40.006Z,73.61
2017-12-12T17:46:53.791Z,74.07
2017-12-12T17:49:26.152Z,74.30
2017-12-12T17:51:58.615Z,74.98
2017-12-12T17:54:30.980Z,75.45
2017-12-12T17:57:08.289Z,75.58
2017-12-12T17:59:40.840Z,75.73
2017-12-12T18:02:15.506Z,75.77
2017-12-12T18:05:24.485Z,76.38
2017-12-12T18:08:04.921Z,76.26
2017-12-12T18:10:46.062Z,76.09
2017-12-12T18:13:21.310Z,76.49
2017-12-12T18:15:59.335Z,75.91
2017-12-12T18:18:38.237Z,76.83
2017-12-12T18:21:12.548Z,76.45
2017-12-12T18:23:50.005Z,76.65
2017-12-12T18:26:23.427Z,76.72
2017-12-12T18:28:55.454Z,76.93
2017-12-12T18:31:30.458Z,77.16
2017-12-12T18:34:02.383Z,76.74
2017-12-12T18:36:35.279Z,76.59
2017-12-12T18:39:14.235Z,76.47
2017-12-12T18:41:49.208Z,76.15
2017-12-12T18:44:25.972Z,76.78
2017-12-12T18:47:01.842Z,76.62
2017-12-12T18:49:34.519Z,77.02
2017-12-12T18:52:09.908Z,77.39
2017-12-12T18:54:47.635Z,77.50
2017-12-12T18:57:26.289Z,78.30
2017-12-12T19:00:03.843Z,78.38
2017-12-12T19:02:47.470Z,78.56
2017-12-12T19:05:33.419Z,78.42
2017-12-12T19:08:11.279Z,78.58
2017-12-12T19:10:44.697Z,77.34
2017-12-12T19:13:24.189Z,77.88
2017-12-12T19:16:01.927Z,77.46
2017-12-12T19:18:40.584Z,77.77
2017-12-12T19:21:20.852Z,78.40
2017-12-12T19:23:58.815Z,77.72
2017-12-12T19:26:36.005Z,77.07
2017-12-12T19:29:17.797Z,77.37
2017-12-12T19:32:11.913Z,76.75
2017-12-12T19:34:53.421Z,76.86
2017-12-12T19:37:27.879Z,78.21
2017-12-12T19:40:16.940Z,78.28
2017-12-12T19:42:52.943Z,78.84
2017-12-12T19:45:31.298Z,78.82
2017-12-12T19:48:13.798Z,79.13
2017-12-12T19:50:54.075Z,79.26
2017-12-12T19:53:31.930Z,79.36
2017-12-12T19:56:15.261Z,79.43
2017-12-12T19:58:49.246Z,78.95
2017-12-12T20:01:23.989Z,79.56
2017-12-12T20:04:02.758Z,79.65
2017-12-12T20:06:40.796Z,79.62
2017-12-12T20:09:20.532Z,79.68
2017-12-12T20:11:54.832Z,80.23
2017-12-12T20:14:34.896Z,79.68
2017-12-12T20:17:11.179Z,80.20
2017-12-12T20:19:43.215Z,80.78
2017-12-12T20:22:20.526Z,80.96
2017-12-12T20:24:52.837Z,80.27
2017-12-12T20:27:32.050Z,80.81
2017-12-12T20:30:13.779Z,80.82
2017-12-12T20:32:51.900Z,80.57
2017-12-12T20:35:26.026Z,80.49
2017-12-12T20:38:01.280Z,80.54
2017-12-12T20:40:36.127Z,80.74
2017-12-12T20:43:10.972Z,80.61
2017-12-12T20:45:44.953Z,80.19
2017-12-12T20:48:17.749Z,79.67
2017-12-12T20:50:52.571Z,82.08
2017-12-12T20:53:25.982Z,80.42
2017-12-12T20:56:00.292Z,79.31
2017-12-12T20:58:33.425Z,79.39
2017-12-12T21:01:07.193Z,80.36
2017-12-12T21:03:40.605Z,80.66
2017-12-12T21:06:19.729Z,79.97
2017-12-12T21:08:58.403Z,81.65
2017-12-12T21:11:35.119Z,80.24
2017-12-12T21:14:13.349Z,80.74
2017-12-12T21:16:45.148Z,80.48
2017-12-12T21:19:19.281Z,81.28
2017-12-12T21:21:59.361Z,80.02
2017-12-12T21:27:25.415Z,81.20
2017-12-12T21:30:01.629Z,81.03
2017-12-12T21:33:01.676Z,81.26
2017-12-12T21:41:24.873Z,83.55
2017-12-12T21:44:06.245Z,84.69
2017-12-12T21:46:49.019Z,85.32
2017-12-12T21:52:10.512Z,85.41
2017-12-12T21:54:54.473Z,81.94
2017-12-12T21:57:31.753Z,82.27
2017-12-12T22:00:09.701Z,82.10
2017-12-12T22:02:49.016Z,82.62
2017-12-12T22:05:23.807Z,81.96
2017-12-12T22:07:58.243Z,83.10
2017-12-12T22:10:32.739Z,83.22
2017-12-12T22:13:08.275Z,84.92
2017-12-12T22:15:43.774Z,83.02
2017-12-12T22:18:16.922Z,84.60
2017-12-12T22:20:51.161Z,83.63
2017-12-12T22:23:26.543Z,83.15
2017-12-12T22:26:01.608Z,82.57
2017-12-12T22:28:38.844Z,84.65
2017-12-12T22:31:16.034Z,84.98
2017-12-12T22:33:52.040Z,82.83
2017-12-12T22:36:25.564Z,83.74
2017-12-12T22:38:59.508Z,82.63
2017-12-12T22:41:35.325Z,84.46
2017-12-12T22:44:18.510Z,84.82
2017-12-12T22:47:00.773Z,82.43
2017-12-12T22:49:33.625Z,81.65
2017-12-12T22:52:11.102Z,82.21
2017-12-12T22:54:45.242Z,81.54
2017-12-12T22:57:28.344Z,81.20
2017-12-12T23:00:03.609Z,81.51
2017-12-12T23:02:43.834Z,81.35
2017-12-12T23:05:18.621Z,81.95
2017-12-12T23:08:00.574Z,80.86
2017-12-12T23:10:38.013Z,81.12
2017-12-12T23:13:11.985Z,81.08
2017-12-12T23:15:52.361Z,81.71
2017-12-12T23:18:25.272Z,81.81
2017-12-12T23:20:57.850Z,81.15
2017-12-12T23:23:30.839Z,81.48
2017-12-12T23:26:04.371Z,82.04
2017-12-12T23:28:38.517Z,81.44
2017-12-12T23:31:10.968Z,80.75
2017-12-12T23:33:42.601Z,81.64
2017-12-12T23:36:15.562Z,82.31
2017-12-12T23:38:47.559Z,82.08
2017-12-12T23:41:19.520Z,82.48
2017-12-12T23:43:50.970Z,82.24
2017-12-12T23:46:22.538Z,81.84
2017-12-12T23:48:54.663Z,81.83
2017-12-12T23:51:27.776Z,82.29
2017-12-12T23:54:00.061Z,83.27
2017-12-12T23:56:32.350Z,82.53
2017-12-12T23:59:08.287Z,82.25
